createdAt,value
2019-05-21T00:00:30.745Z,100441.80
2019-05-21T00:03:00.910Z,100444.70
2019-05-21T00:05:31.075Z,100438.31
2019-05-21T00:08:01.259Z,100442.20
2019-05-21T00:10:31.497Z,100435.32
2019-05-21T00:13:04.120Z,100439.55
2019-05-21T00:15:37.323Z,100445.97
2019-05-21T00:18:07.513Z,100446.81
2019-05-21T00:20:37.668Z,100434.39
2019-05-21T00:23:07.957Z,100431.58
2019-05-21T00:25:38.605Z,100439.12
2019-05-21T00:28:41.807Z,100436.47
2019-05-21T00:31:47.801Z,100434.92
2019-05-21T00:34:53.680Z,100423.23
2019-05-21T00:38:00.172Z,100421.07
2019-05-21T00:41:06.007Z,100429.85
2019-05-21T00:43:51.138Z,100422.44
2019-05-21T00:46:21.383Z,100422.77
2019-05-21T00:48:51.982Z,100426.45
2019-05-21T00:51:23.770Z,100425.23
2019-05-21T00:53:53.900Z,100421.58
2019-05-21T00:56:24.069Z,100430.10
2019-05-21T00:58:54.262Z,100425.98
2019-05-21T01:01:24.903Z,100421.86
2019-05-21T01:03:55.065Z,100423.24
2019-05-21T01:06:25.741Z,100423.63
2019-05-21T01:08:57.967Z,100429.74
2019-05-21T01:11:28.147Z,100429.95
2019-05-21T01:13:59.868Z,100436.46
2019-05-21T01:16:30.353Z,100431.59
2019-05-21T01:19:00.529Z,100433.28
2019-05-21T01:21:30.694Z,100436.46
2019-05-21T01:24:02.308Z,100434.95
2019-05-21T01:26:32.911Z,100445.30
2019-05-21T01:29:03.478Z,100442.48
2019-05-21T01:31:33.651Z,100440.06
2019-05-21T01:34:03.851Z,100439.73
2019-05-21T01:36:34.456Z,100439.27
2019-05-21T01:39:06.258Z,100432.66
2019-05-21T01:41:36.427Z,100432.52
2019-05-21T01:44:06.577Z,100435.04
2019-05-21T01:46:36.774Z,100428.27
2019-05-21T01:49:07.393Z,100425.23
2019-05-21T01:51:37.561Z,100427.95
2019-05-21T01:54:09.055Z,100423.89
2019-05-21T01:56:39.203Z,100426.84
2019-05-21T01:59:09.354Z,100423.95
2019-05-21T02:01:39.629Z,100423.87
2019-05-21T02:04:10.254Z,100419.77
2019-05-21T02:06:40.403Z,100417.50
2019-05-21T02:09:11.550Z,100416.33
2019-05-21T02:11:41.854Z,100414.78
2019-05-21T02:14:13.824Z,100414.30
2019-05-21T02:16:43.966Z,100416.41
2019-05-21T02:19:14.163Z,100418.56
2019-05-21T02:21:44.350Z,100417.05
2019-05-21T02:24:14.968Z,100420.35
2019-05-21T02:26:45.678Z,100425.70
2019-05-21T02:29:15.838Z,100426.08
2019-05-21T02:31:46.028Z,100436.34
2019-05-21T02:34:16.628Z,100441.08
2019-05-21T02:36:47.775Z,100436.01
2019-05-21T02:39:17.949Z,100437.24
2019-05-21T02:41:48.097Z,100437.08
2019-05-21T02:44:19.508Z,100439.53
2019-05-21T02:46:50.207Z,100438.18
2019-05-21T02:49:20.476Z,100438.08
2019-05-21T02:51:50.646Z,100438.66
2019-05-21T02:54:37.477Z,100448.86
2019-05-21T02:56:53.256Z,100441.09
2019-05-21T02:59:24.843Z,100444.92
2019-05-21T03:02:09.811Z,100437.15
2019-05-21T03:04:40.033Z,100442.56
2019-05-21T03:07:19.768Z,100446.59
2019-05-21T03:09:50.435Z,100440.60
2019-05-21T03:12:20.524Z,100435.98
2019-05-21T03:14:53.104Z,100436.72
2019-05-21T03:17:23.718Z,100443.66
2019-05-21T03:19:53.890Z,100437.93
2019-05-21T03:22:24.049Z,100447.86
2019-05-21T03:24:54.207Z,100454.69
2019-05-21T03:27:25.010Z,100467.91
2019-05-21T03:29:55.168Z,100465.53
2019-05-21T03:32:25.342Z,100468.61
2019-05-21T03:34:55.597Z,100476.80
2019-05-21T03:37:26.321Z,100473.95
2019-05-21T03:39:56.589Z,100470.69
2019-05-21T03:42:26.756Z,100472.62
2019-05-21T03:45:00.508Z,100475.73
2019-05-21T03:47:29.475Z,100470.30
2019-05-21T03:50:00.872Z,100471.32
2019-05-21T03:52:30.990Z,100473.95
2019-05-21T03:55:03.088Z,100469.05
2019-05-21T03:57:33.031Z,100476.73
2019-05-21T04:00:03.762Z,100473.50
2019-05-21T04:02:33.941Z,100484.84
2019-05-21T04:05:04.429Z,100480.73
2019-05-21T04:07:34.754Z,100482.08
2019-05-21T04:10:06.929Z,100481.44
2019-05-21T04:12:37.514Z,100479.70
2019-05-21T04:15:11.857Z,100479.41
2019-05-21T04:17:54.162Z,100483.24
2019-05-21T04:20:24.361Z,100481.91
2019-05-21T04:22:55.020Z,100479.88
2019-05-21T04:25:25.783Z,100480.44
2019-05-21T04:27:55.920Z,100479.34
2019-05-21T04:30:26.224Z,100480.39
2019-05-21T04:32:56.830Z,100468.49
2019-05-21T04:35:27.010Z,100475.09
2019-05-21T04:37:57.173Z,100475.49
2019-05-21T04:40:27.317Z,100478.17
2019-05-21T04:43:01.869Z,100477.20
2019-05-21T04:45:31.133Z,100483.11
2019-05-21T04:48:01.308Z,100479.69
2019-05-21T04:50:31.452Z,100479.38
2019-05-21T04:53:01.620Z,100487.16
2019-05-21T04:55:33.971Z,100483.58
2019-05-21T04:58:04.623Z,100474.72
2019-05-21T05:00:36.156Z,100479.06
2019-05-21T05:03:06.315Z,100479.70
2019-05-21T05:05:36.524Z,100480.45
2019-05-21T05:08:06.786Z,100471.34
2019-05-21T05:10:37.412Z,100477.16
2019-05-21T05:13:08.311Z,100484.68
2019-05-21T05:15:39.178Z,100491.66
2019-05-21T05:18:09.789Z,100491.36
2019-05-21T05:20:40.396Z,100502.00
2019-05-21T05:23:10.547Z,100509.42
2019-05-21T05:25:40.804Z,100504.70
2019-05-21T05:28:11.011Z,100516.33
2019-05-21T05:30:41.189Z,100509.24
2019-05-21T05:33:12.487Z,100517.83
2019-05-21T05:35:43.193Z,100515.45
2019-05-21T05:38:13.336Z,100517.03
2019-05-21T05:40:43.552Z,100522.84
2019-05-21T05:43:13.696Z,100528.75
2019-05-21T05:45:43.859Z,100523.88
2019-05-21T05:48:15.255Z,100530.48
2019-05-21T05:50:47.553Z,100536.96
2019-05-21T05:53:17.704Z,100531.71
2019-05-21T05:55:47.900Z,100535.23
2019-05-21T05:58:18.090Z,100532.63
2019-05-21T06:00:48.714Z,100542.11
2019-05-21T06:03:20.180Z,100537.39
2019-05-21T06:05:50.328Z,100541.20
2019-05-21T06:08:20.491Z,100540.59
2019-05-21T06:10:50.668Z,100544.74
2019-05-21T06:13:21.341Z,100540.43
2019-05-21T06:15:51.795Z,100543.44
2019-05-21T06:18:21.956Z,100545.64
2019-05-21T06:20:52.136Z,100541.30
2019-05-21T06:23:22.780Z,100554.29
2019-05-21T06:25:53.026Z,100550.95
2019-05-21T06:28:23.189Z,100561.80
2019-05-21T06:30:53.426Z,100561.80
2019-05-21T06:33:24.032Z,100563.64
2019-05-21T06:35:55.544Z,100566.02
2019-05-21T06:38:25.707Z,100564.64
2019-05-21T06:40:56.283Z,100568.42
2019-05-21T06:43:27.021Z,100565.52
2019-05-21T06:45:57.282Z,100567.28
2019-05-21T06:48:27.435Z,100571.89
2019-05-21T06:50:57.617Z,100570.08
2019-05-21T06:53:27.998Z,100580.41
2019-05-21T06:55:58.746Z,100578.70
2019-05-21T06:58:28.949Z,100585.39
2019-05-21T07:00:59.117Z,100590.83
2019-05-21T07:03:29.317Z,100595.97
2019-05-21T07:06:00.094Z,100594.41
2019-05-21T07:08:34.693Z,100606.70
2019-05-21T07:11:04.907Z,100595.75
2019-05-21T07:13:35.145Z,100600.55
2019-05-21T07:16:07.133Z,100604.92
2019-05-21T07:18:41.111Z,100600.55
2019-05-21T07:21:09.237Z,100607.94
2019-05-21T07:23:39.410Z,100608.30
2019-05-21T07:26:11.741Z,100619.91
2019-05-21T07:28:41.961Z,100626.30
2019-05-21T07:31:12.151Z,100630.52
2019-05-21T07:33:42.429Z,100630.81
2019-05-21T07:36:13.075Z,100627.33
2019-05-21T07:38:53.289Z,100634.00
2019-05-21T07:41:15.159Z,100639.34
2019-05-21T07:43:45.404Z,100642.33
2019-05-21T07:46:16.117Z,100652.36
2019-05-21T07:48:46.420Z,100646.73
2019-05-21T07:51:16.607Z,100654.04
2019-05-21T07:53:46.878Z,100649.46
2019-05-21T07:56:17.723Z,100646.33
2019-05-21T07:58:48.851Z,100653.02
2019-05-21T08:01:19.031Z,100658.50
2019-05-21T08:03:49.162Z,100664.75
2019-05-21T08:06:19.994Z,100674.00
2019-05-21T08:08:50.667Z,100665.45
2019-05-21T08:11:22.285Z,100665.31
2019-05-21T08:13:52.924Z,100669.45
2019-05-21T08:16:25.742Z,100667.77
2019-05-21T08:18:56.994Z,100665.68
2019-05-21T08:21:27.534Z,100670.98
2019-05-21T08:23:57.681Z,100675.33
2019-05-21T08:26:27.980Z,100678.09
2019-05-21T08:28:58.762Z,100692.03
2019-05-21T08:31:29.443Z,100699.70
2019-05-21T08:33:59.598Z,100698.34
2019-05-21T08:36:29.854Z,100700.98
2019-05-21T08:39:00.521Z,100708.81
2019-05-21T08:41:31.116Z,100706.38
2019-05-21T08:44:01.275Z,100708.88
2019-05-21T08:46:31.458Z,100716.26
2019-05-21T08:49:03.372Z,100721.72
2019-05-21T08:51:33.569Z,100728.78
2019-05-21T08:54:05.038Z,100737.26
2019-05-21T08:56:35.213Z,100745.42
2019-05-21T08:59:05.943Z,100746.02
2019-05-21T09:01:36.125Z,100745.92
2019-05-21T09:04:06.487Z,100763.73
2019-05-21T09:06:36.781Z,100766.89
2019-05-21T09:09:07.928Z,100770.03
2019-05-21T09:11:38.134Z,100759.73
2019-05-21T09:14:08.288Z,100760.05
2019-05-21T09:16:39.569Z,100758.75
2019-05-21T09:19:10.254Z,100764.31
2019-05-21T09:21:41.661Z,100768.02
2019-05-21T09:24:11.834Z,100777.27
2019-05-21T09:26:42.121Z,100774.78
2019-05-21T09:29:12.797Z,100775.66
2019-05-21T09:31:43.067Z,100781.47
2019-05-21T09:34:13.233Z,100778.91
2019-05-21T09:36:43.450Z,100776.52
2019-05-21T09:39:14.506Z,100783.23
2019-05-21T09:41:44.814Z,100781.97
2019-05-21T09:44:15.074Z,100776.95
2019-05-21T09:46:45.641Z,100769.88
2019-05-21T09:49:16.419Z,100770.25
2019-05-21T09:51:46.586Z,100774.91
2019-05-21T09:54:17.508Z,100777.64
2019-05-21T09:56:47.849Z,100791.31
2019-05-21T09:59:46.631Z,100786.22
2019-05-21T10:02:20.685Z,100787.00
2019-05-21T10:04:51.131Z,100784.28
2019-05-21T10:07:38.221Z,100788.61
2019-05-21T10:09:53.254Z,100783.27
2019-05-21T10:12:23.607Z,100790.07
2019-05-21T10:14:54.290Z,100788.98
2019-05-21T10:17:24.866Z,100785.44
2019-05-21T10:19:58.772Z,100785.23
2019-05-21T10:22:28.060Z,100784.28
2019-05-21T10:24:58.350Z,100791.57
2019-05-21T10:27:28.655Z,100790.05
2019-05-21T10:29:59.323Z,100791.88
2019-05-21T10:32:29.493Z,100787.86
2019-05-21T10:34:59.705Z,100792.55
2019-05-21T10:37:29.945Z,100795.63
2019-05-21T10:40:00.124Z,100806.47
2019-05-21T10:42:31.448Z,100803.72
2019-05-21T10:45:02.120Z,100812.60
2019-05-21T10:47:32.449Z,100813.77
2019-05-21T10:50:02.709Z,100816.81
2019-05-21T10:52:32.855Z,100822.66
2019-05-21T10:55:03.655Z,100823.67
2019-05-21T10:57:35.772Z,100820.39
2019-05-21T11:00:10.316Z,100816.42
2019-05-21T11:02:49.031Z,100821.64
2019-05-21T11:05:28.673Z,100826.53
2019-05-21T11:08:21.786Z,100823.97
2019-05-21T11:10:29.793Z,100828.05
2019-05-21T11:13:01.334Z,100833.62
2019-05-21T11:15:31.715Z,100836.71
2019-05-21T11:18:11.687Z,100835.80
2019-05-21T11:20:35.441Z,100846.58
2019-05-21T11:23:07.144Z,100849.22
2019-05-21T11:25:38.672Z,100851.05
2019-05-21T11:28:09.912Z,100857.60
2019-05-21T11:30:40.645Z,100866.23
2019-05-21T11:33:10.942Z,100862.97
2019-05-21T11:35:41.116Z,100866.56
2019-05-21T11:38:11.295Z,100867.36
2019-05-21T11:40:42.017Z,100872.73
2019-05-21T11:43:12.186Z,100874.00
2019-05-21T11:45:42.393Z,100879.09
2019-05-21T11:48:12.621Z,100888.77
2019-05-21T11:50:47.851Z,100880.48
2019-05-21T11:53:18.158Z,100888.90
2019-05-21T11:55:48.339Z,100889.16
2019-05-21T11:58:20.023Z,100892.77
2019-05-21T12:00:51.250Z,100883.56
2019-05-21T12:03:22.208Z,100885.95
2019-05-21T12:05:52.773Z,100891.18
2019-05-21T12:08:23.114Z,100890.00
2019-05-21T12:10:53.345Z,100887.45
2019-05-21T12:13:24.104Z,100892.98
2019-05-21T12:15:54.265Z,100898.20
2019-05-21T12:18:26.856Z,100903.33
2019-05-21T12:20:57.415Z,100899.45
2019-05-21T12:23:28.174Z,100909.16
2019-05-21T12:25:58.975Z,100906.39
2019-05-21T12:28:29.319Z,100912.13
2019-05-21T12:30:59.528Z,100915.92
2019-05-21T12:33:34.423Z,100913.16
2019-05-21T12:36:02.913Z,100924.50
2019-05-21T12:38:33.192Z,100926.16
2019-05-21T12:41:03.389Z,100937.28
2019-05-21T12:43:34.136Z,100941.21
2019-05-21T12:46:04.524Z,100947.70
2019-05-21T12:48:34.690Z,100948.59
2019-05-21T12:51:05.463Z,100950.93
2019-05-21T12:53:37.260Z,100957.73
2019-05-21T12:56:07.729Z,100958.69
2019-05-21T12:58:37.952Z,100950.16
2019-05-21T13:01:08.291Z,100949.95
2019-05-21T13:03:39.015Z,100955.66
2019-05-21T13:06:09.282Z,100961.44
2019-05-21T13:08:39.446Z,100962.95
2019-05-21T13:11:09.626Z,100964.94
2019-05-21T13:13:40.596Z,100960.92
2019-05-21T13:16:10.860Z,100965.24
2019-05-21T13:18:42.840Z,100968.13
2019-05-21T13:21:13.020Z,100976.66
2019-05-21T13:23:43.671Z,100975.92
2019-05-21T13:26:13.950Z,100970.61
2019-05-21T13:28:44.102Z,100982.91
2019-05-21T13:31:15.595Z,100979.41
2019-05-21T13:33:46.246Z,100983.82
2019-05-21T13:36:18.822Z,100980.95
2019-05-21T13:38:50.573Z,100986.48
2019-05-21T13:41:20.933Z,100984.66
2019-05-21T13:43:51.683Z,100985.25
2019-05-21T13:46:22.056Z,100988.31
2019-05-21T13:48:52.338Z,100991.53
2019-05-21T13:51:22.510Z,100999.34
2019-05-21T13:53:53.294Z,101003.47
2019-05-21T13:56:23.926Z,100996.80
2019-05-21T13:58:54.249Z,101005.94
2019-05-21T14:01:39.164Z,101004.95
2019-05-21T14:03:56.564Z,101012.39
2019-05-21T14:06:27.261Z,101013.38
2019-05-21T14:08:58.941Z,101016.31
2019-05-21T14:11:29.311Z,101020.52
2019-05-21T14:13:59.714Z,101023.24
2019-05-21T14:16:29.895Z,101026.33
2019-05-21T14:19:01.037Z,101026.84
2019-05-21T14:21:31.336Z,101033.86
2019-05-21T14:24:01.513Z,101025.73
2019-05-21T14:26:32.222Z,101031.56
2019-05-21T14:29:03.992Z,101026.43
2019-05-21T14:31:34.309Z,101026.52
2019-05-21T14:34:04.848Z,101023.23
2019-05-21T14:36:35.249Z,101026.30
2019-05-21T14:39:14.399Z,101029.13
2019-05-21T14:41:45.836Z,101035.95
2019-05-21T14:44:15.997Z,101039.01
2019-05-21T14:46:46.184Z,101043.08
2019-05-21T14:49:16.459Z,101046.78
2019-05-21T14:51:48.073Z,101050.25
2019-05-21T14:54:26.653Z,101039.02
2019-05-21T14:56:51.589Z,101045.48
2019-05-21T14:59:21.812Z,101043.55
2019-05-21T15:01:52.089Z,101050.97
2019-05-21T15:04:23.017Z,101043.36
2019-05-21T15:06:55.241Z,101050.19
2019-05-21T15:09:25.418Z,101049.47
2019-05-21T15:11:55.687Z,101047.50
2019-05-21T15:14:25.902Z,101050.74
2019-05-21T15:16:56.688Z,101052.25
2019-05-21T15:19:27.418Z,101053.84
2019-05-21T15:21:57.786Z,101053.02
2019-05-21T15:24:27.964Z,101054.93
2019-05-21T15:26:58.324Z,101054.88
2019-05-21T15:29:29.020Z,101056.98
2019-05-21T15:31:59.627Z,101052.38
2019-05-21T15:34:29.987Z,101060.94
2019-05-21T15:37:00.328Z,101057.13
2019-05-21T15:39:30.508Z,101064.02
2019-05-21T15:42:00.666Z,101056.65
2019-05-21T15:44:31.528Z,101063.35
2019-05-21T15:47:02.224Z,101063.59
2019-05-21T15:49:36.381Z,101071.56
2019-05-21T15:52:04.554Z,101066.08
2019-05-21T15:54:34.726Z,101067.77
2019-05-21T15:57:04.975Z,101070.51
2019-05-21T15:59:35.776Z,101070.03
2019-05-21T16:02:06.593Z,101071.89
2019-05-21T16:04:36.775Z,101070.13
2019-05-21T16:07:06.954Z,101069.62
2019-05-21T16:09:37.183Z,101069.64
2019-05-21T16:12:07.367Z,101063.55
2019-05-21T16:14:38.035Z,101075.50
2019-05-21T16:17:08.669Z,101075.04
2019-05-21T16:19:39.739Z,101072.98
2019-05-21T16:22:10.019Z,101081.88
2019-05-21T16:24:40.715Z,101079.14
2019-05-21T16:27:10.927Z,101076.58
2019-05-21T16:29:41.199Z,101083.42
2019-05-21T16:32:11.498Z,101085.00
2019-05-21T16:34:41.702Z,101087.49
2019-05-21T16:37:12.302Z,101087.30
2019-05-21T16:39:42.627Z,101086.52
2019-05-21T16:42:13.168Z,101088.48
2019-05-21T16:44:43.529Z,101088.27
2019-05-21T16:47:14.425Z,101085.59
2019-05-21T16:49:44.770Z,101083.17
2019-05-21T16:52:15.218Z,101080.92
2019-05-21T16:54:45.402Z,101079.27
2019-05-21T16:57:15.741Z,101084.48
2019-05-21T16:59:46.751Z,101086.47
2019-05-21T17:02:16.956Z,101086.20
2019-05-21T17:04:47.128Z,101080.08
2019-05-21T17:07:17.300Z,101087.05
2019-05-21T17:09:48.186Z,101086.27
2019-05-21T17:12:18.458Z,101093.34
2019-05-21T17:14:50.052Z,101092.67
2019-05-21T17:17:21.121Z,101092.06
2019-05-21T17:19:52.872Z,101099.11
2019-05-21T17:22:24.736Z,101103.00
2019-05-21T17:24:54.971Z,101098.69
2019-05-21T17:27:25.172Z,101098.66
2019-05-21T17:29:55.357Z,101105.28
2019-05-21T17:32:26.045Z,101107.22
2019-05-21T17:34:56.393Z,101106.75
2019-05-21T17:37:26.558Z,101106.41
2019-05-21T17:39:56.898Z,101104.81
2019-05-21T17:42:27.633Z,101111.03
2019-05-21T17:44:57.945Z,101111.96
2019-05-21T17:47:28.270Z,101106.56
2019-05-21T17:49:58.526Z,101115.36
2019-05-21T17:52:29.370Z,101110.70
2019-05-21T17:55:01.065Z,101111.09
2019-05-21T17:57:34.917Z,101105.69
2019-05-21T18:00:06.816Z,101111.35
2019-05-21T18:02:37.803Z,101109.95
2019-05-21T18:05:09.172Z,101110.02
2019-05-21T18:07:41.936Z,101109.08
2019-05-21T18:10:13.523Z,101115.45
2019-05-21T18:12:44.561Z,101120.12
2019-05-21T18:15:15.958Z,101119.58
2019-05-21T18:17:46.906Z,101120.45
2019-05-21T18:20:20.450Z,101121.53
2019-05-21T18:22:51.871Z,101125.13
2019-05-21T18:25:23.567Z,101131.20
2019-05-21T18:27:54.393Z,101127.02
2019-05-21T18:30:25.260Z,101134.38
2019-05-21T18:32:55.660Z,101139.12
2019-05-21T18:35:25.939Z,101135.89
2019-05-21T18:37:56.840Z,101138.76
2019-05-21T18:40:27.118Z,101143.72
2019-05-21T18:42:57.318Z,101146.92
2019-05-21T18:45:28.536Z,101150.13
2019-05-21T18:47:59.373Z,101143.80
2019-05-21T18:50:36.426Z,101148.78
2019-05-21T18:53:01.910Z,101154.55
2019-05-21T18:55:32.292Z,101155.77
2019-05-21T18:58:03.679Z,101150.02
2019-05-21T19:00:35.033Z,101158.16
2019-05-21T19:03:05.313Z,101160.52
2019-05-21T19:05:35.561Z,101164.33
2019-05-21T19:08:06.167Z,101166.77
2019-05-21T19:10:36.918Z,101172.53
2019-05-21T19:13:07.559Z,101170.74
2019-05-21T19:15:37.766Z,101171.20
2019-05-21T19:18:08.543Z,101170.66
2019-05-21T19:20:40.849Z,101174.76
2019-05-21T19:23:11.176Z,101184.90
2019-05-21T19:25:41.384Z,101180.38
2019-05-21T19:28:11.563Z,101185.58
2019-05-21T19:30:42.188Z,101182.90
2019-05-21T19:33:12.888Z,101185.36
2019-05-21T19:35:43.086Z,101194.39
2019-05-21T19:38:13.248Z,101197.30
2019-05-21T19:40:43.559Z,101200.84
2019-05-21T19:43:13.903Z,101196.20
2019-05-21T19:45:44.545Z,101203.20
2019-05-21T19:48:14.822Z,101201.30
2019-05-21T19:50:45.272Z,101198.48
2019-05-21T19:53:15.465Z,101204.44
2019-05-21T19:55:47.004Z,101211.45
2019-05-21T19:58:17.728Z,101214.32
2019-05-21T20:00:53.834Z,101213.05
2019-05-21T20:03:24.801Z,101220.45
2019-05-21T20:05:56.319Z,101216.08
2019-05-21T20:08:27.112Z,101222.14
2019-05-21T20:10:59.082Z,101216.03
2019-05-21T20:13:32.690Z,101228.05
2019-05-21T20:16:03.090Z,101231.03
2019-05-21T20:18:33.301Z,101228.44
2019-05-21T20:21:08.670Z,101231.58
2019-05-21T20:23:39.846Z,101236.19
2019-05-21T20:26:14.338Z,101241.23
2019-05-21T20:28:44.793Z,101239.79
2019-05-21T20:31:16.680Z,101234.02
2019-05-21T20:33:49.996Z,101243.47
2019-05-21T20:36:21.345Z,101244.09
2019-05-21T20:38:52.981Z,101243.49
2019-05-21T20:41:24.892Z,101251.46
2019-05-21T20:43:58.982Z,101248.16
2019-05-21T20:46:28.339Z,101241.83
2019-05-21T20:49:00.776Z,101249.86
2019-05-21T20:51:31.863Z,101249.39
2019-05-21T20:54:03.087Z,101240.33
2019-05-21T20:56:36.214Z,101245.82
2019-05-21T20:59:06.362Z,101243.03
2019-05-21T21:01:36.557Z,101247.02
2019-05-21T21:04:07.374Z,101241.20
2019-05-21T21:06:38.088Z,101241.98
2019-05-21T21:09:10.518Z,101234.47
2019-05-21T21:11:41.594Z,101241.20
2019-05-21T21:14:17.924Z,101238.19
2019-05-21T21:16:46.677Z,101237.17
2019-05-21T21:19:18.374Z,101238.92
2019-05-21T21:21:49.144Z,101236.97
2019-05-21T21:24:20.395Z,101240.58
2019-05-21T21:26:51.194Z,101238.99
2019-05-21T21:29:21.849Z,101238.63
2019-05-21T21:31:52.023Z,101247.56
2019-05-21T21:34:22.460Z,101248.25
2019-05-21T21:36:53.409Z,101244.62
2019-05-21T21:39:24.254Z,101245.59
2019-05-21T21:41:54.586Z,101253.68
2019-05-21T21:44:33.706Z,101259.87
2019-05-21T21:46:57.431Z,101253.78
2019-05-21T21:49:28.996Z,101260.24
2019-05-21T21:52:00.654Z,101250.37
2019-05-21T21:54:30.888Z,101258.53
2019-05-21T21:57:01.217Z,101258.58
2019-05-21T21:59:32.516Z,101263.79
2019-05-21T22:02:17.252Z,101264.89
2019-05-21T22:04:48.281Z,101261.07
2019-05-21T22:07:18.529Z,101268.27
2019-05-21T22:09:48.873Z,101264.06
2019-05-21T22:12:19.950Z,101264.34
2019-05-21T22:14:58.214Z,101268.54
2019-05-21T22:17:29.803Z,101274.07
2019-05-21T22:20:00.151Z,101266.52
2019-05-21T22:22:31.723Z,101269.80
2019-05-21T22:25:02.501Z,101269.80
2019-05-21T22:27:33.936Z,101266.79
2019-05-21T22:30:05.995Z,101269.80
2019-05-21T22:32:38.243Z,101266.56
2019-05-21T22:35:09.603Z,101268.35
2019-05-21T22:37:39.868Z,101270.38
2019-05-21T22:40:10.359Z,101266.89
2019-05-21T22:42:41.518Z,101262.83
2019-05-21T22:45:11.767Z,101274.16
2019-05-21T22:47:42.885Z,101274.08
2019-05-21T22:50:13.827Z,101277.53
2019-05-21T22:52:44.471Z,101273.66
2019-05-21T22:55:14.643Z,101273.80
2019-05-21T22:57:46.005Z,101272.09
2019-05-21T23:00:15.615Z,101270.44
2019-05-21T23:02:46.624Z,101275.78
2019-05-21T23:05:18.007Z,101272.45
2019-05-21T23:07:48.263Z,101268.69
2019-05-21T23:10:18.511Z,101269.83
2019-05-21T23:12:49.274Z,101266.47
2019-05-21T23:15:24.974Z,101272.19
2019-05-21T23:18:02.141Z,101271.21
2019-05-21T23:20:35.979Z,101270.52
2019-05-21T23:23:10.984Z,101274.16
2019-05-21T23:25:43.427Z,101270.84
2019-05-21T23:28:13.861Z,101269.89
2019-05-21T23:30:44.117Z,101267.34
2019-05-21T23:33:15.835Z,101269.92
2019-05-21T23:35:46.285Z,101273.38
2019-05-21T23:38:20.614Z,101278.63
2019-05-21T23:40:51.380Z,101273.06
2019-05-21T23:43:22.036Z,101272.19
2019-05-21T23:45:52.590Z,101270.28
2019-05-21T23:48:23.145Z,101263.01
2019-05-21T23:50:53.300Z,101265.27
2019-05-21T23:53:25.126Z,101267.25
2019-05-21T23:55:55.558Z,101262.42
2019-05-21T23:58:25.949Z,101263.24
